Time;durP1;ratioP1;P1;durP2;ratioP2;P2;SDS_P1;SDS_P2;PMS_P1;PMS_P2;Temp;Humidity;BMP_temperature;BMP_pressure;BME280_temperature;BME280_humidity;BME280_pressure;Samples;Min_cycle;Max_cycle;Signal;HPM_P1;HPM_P2
2022/05/04 00:02:03;;;;;;;30.90;16.60;;;;;;;;;;6315647;28;20032;-80
2022/05/04 00:05:04;;;;;;;27.38;14.68;;;;;;;;;;6317355;28;20280;-80
2022/05/04 00:08:04;;;;;;;30.63;14.60;;;;;;;;;;6317066;28;20140;-80
2022/05/04 00:11:05;;;;;;;33.80;15.32;;;;;;;;;;6318389;28;20032;-80
2022/05/04 00:14:06;;;;;;;22.77;13.73;;;;;;;;;;6318374;28;20016;-80
2022/05/04 00:17:06;;;;;;;19.58;12.10;;;;;;;;;;6317295;28;20492;-79
2022/05/04 00:20:06;;;;;;;24.30;12.73;;;;;;;;;;6307299;28;20126;-80
2022/05/04 00:23:07;;;;;;;18.45;11.05;;;;;;;;;;6292363;28;20017;-80
2022/05/04 00:26:07;;;;;;;22.75;12.10;;;;;;;;;;6310198;28;20074;-80
2022/05/04 00:29:07;;;;;;;18.75;9.18;;;;;;;;;;6317927;28;20058;-80
2022/05/04 00:32:08;;;;;;;17.73;9.93;;;;;;;;;;6318241;28;20031;-80
2022/05/04 00:35:08;;;;;;;15.55;8.77;;;;;;;;;;6318811;28;20023;-80
2022/05/04 00:38:08;;;;;;;19.00;9.10;;;;;;;;;;6318386;28;20406;-80
2022/05/04 00:41:09;;;;;;;19.37;9.97;;;;;;;;;;6316971;28;20027;-80
2022/05/04 00:44:09;;;;;;;14.38;8.68;;;;;;;;;;6319866;28;20289;-80
2022/05/04 00:47:09;;;;;;;15.77;8.77;;;;;;;;;;6321827;28;20041;-80
2022/05/04 00:50:10;;;;;;;17.58;8.38;;;;;;;;;;6321705;28;20115;-80
2022/05/04 00:53:10;;;;;;;17.98;8.30;;;;;;;;;;6322445;28;20491;-80
2022/05/04 00:56:11;;;;;;;15.70;8.00;;;;;;;;;;6311721;28;20027;-80
2022/05/04 00:59:12;;;;;;;18.52;8.48;;;;;;;;;;6322956;28;20038;-80
2022/05/04 01:02:12;;;;;;;16.73;8.05;;;;;;;;;;6322414;28;20046;-80
2022/05/04 01:05:12;;;;;;;14.15;8.30;;;;;;;;;;6322678;28;20016;-80
2022/05/04 01:08:12;;;;;;;16.07;9.13;;;;;;;;;;6320877;28;20020;-80
2022/05/04 01:11:13;;;;;;;22.42;10.68;;;;;;;;;;6322256;28;20293;-80
2022/05/04 01:14:14;;;;;;;23.75;11.68;;;;;;;;;;6322654;28;20387;-81
2022/05/04 01:17:14;;;;;;;21.13;11.63;;;;;;;;;;6321274;28;20016;-80
2022/05/04 01:20:16;;;;;;;31.50;12.40;;;;;;;;;;6320796;28;20027;-80
2022/05/04 01:23:16;;;;;;;25.97;13.97;;;;;;;;;;6322055;28;20311;-80
2022/05/04 01:26:16;;;;;;;22.15;13.43;;;;;;;;;;6341366;28;20023;-80
2022/05/04 01:29:16;;;;;;;34.80;15.02;;;;;;;;;;6345974;28;20020;-80
2022/05/04 01:32:17;;;;;;;23.07;11.50;;;;;;;;;;6345639;28;20471;-80
2022/05/04 01:35:17;;;;;;;29.50;11.80;;;;;;;;;;6345924;28;20609;-80
2022/05/04 01:38:17;;;;;;;23.23;10.85;;;;;;;;;;6345697;27;20504;-80
2022/05/04 01:44:36;;;;;;;19.35;11.23;;;;;;;;;;6345873;28;20282;-80
2022/05/04 01:47:37;;;;;;;19.85;11.68;;;;;;;;;;6345293;28;20046;-80
2022/05/04 01:50:37;;;;;;;20.60;11.50;;;;;;;;;;6346951;28;20015;-80
2022/05/04 01:53:37;;;;;;;20.50;11.50;;;;;;;;;;6344646;27;20019;-80
2022/05/04 01:56:38;;;;;;;20.90;10.57;;;;;;;;;;6322156;28;20254;-80
2022/05/04 01:59:38;;;;;;;20.95;11.10;;;;;;;;;;6319803;28;20266;-80
2022/05/04 02:02:38;;;;;;;20.75;11.48;;;;;;;;;;6318817;28;20031;-82
2022/05/04 02:05:41;;;;;;;24.17;12.73;;;;;;;;;;6321028;28;20033;-80
2022/05/04 02:08:41;;;;;;;19.83;13.57;;;;;;;;;;6320518;28;20137;-80
2022/05/04 02:11:41;;;;;;;21.33;12.57;;;;;;;;;;6320948;28;20012;-81
2022/05/04 02:14:41;;;;;;;25.77;13.55;;;;;;;;;;6319652;28;20095;-80
2022/05/04 02:17:42;;;;;;;20.60;11.10;;;;;;;;;;6322872;28;20093;-81
2022/05/04 02:20:42;;;;;;;18.92;11.88;;;;;;;;;;6319517;28;20337;-80
2022/05/04 02:23:42;;;;;;;22.50;12.47;;;;;;;;;;6319216;28;20471;-80
2022/05/04 02:26:42;;;;;;;23.63;12.05;;;;;;;;;;6320715;28;20691;-80
2022/05/04 02:29:43;;;;;;;22.02;13.70;;;;;;;;;;6320828;28;20038;-80
2022/05/04 02:32:43;;;;;;;23.33;12.55;;;;;;;;;;6318710;28;20020;-80
2022/05/04 02:39:02;;;;;;;21.95;12.48;;;;;;;;;;6320578;28;20031;-80
2022/05/04 02:42:03;;;;;;;21.80;12.63;;;;;;;;;;6319045;28;20027;-80
2022/05/04 02:45:06;;;;;;;23.05;12.23;;;;;;;;;;6318526;28;20394;-80
2022/05/04 02:48:07;;;;;;;18.13;11.82;;;;;;;;;;6319686;28;20012;-80
2022/05/04 02:51:07;;;;;;;18.23;9.50;;;;;;;;;;6318606;28;20546;-80
2022/05/04 02:54:08;;;;;;;15.55;9.02;;;;;;;;;;6319765;28;20020;-80
2022/05/04 02:57:08;;;;;;;11.25;7.40;;;;;;;;;;6317840;28;20429;-80
2022/05/04 03:00:09;;;;;;;14.25;7.82;;;;;;;;;;6319858;28;20020;-81
2022/05/04 03:03:10;;;;;;;15.05;8.38;;;;;;;;;;6322446;28;20090;-81
2022/05/04 03:06:11;;;;;;;13.80;7.43;;;;;;;;;;6318449;28;20069;-80
2022/05/04 03:09:11;;;;;;;18.90;8.67;;;;;;;;;;6318328;28;20008;-80
2022/05/04 03:12:12;;;;;;;15.20;7.70;;;;;;;;;;6319646;28;20904;-80
2022/05/04 03:15:12;;;;;;;13.02;7.80;;;;;;;;;;6327252;28;20020;-80
2022/05/04 03:18:12;;;;;;;14.27;7.82;;;;;;;;;;6341302;28;20023;-80
2022/05/04 03:21:12;;;;;;;13.17;7.07;;;;;;;;;;6342778;28;20411;-80
2022/05/04 03:24:13;;;;;;;12.27;6.30;;;;;;;;;;6342584;28;20431;-80
2022/05/04 03:27:13;;;;;;;12.13;6.93;;;;;;;;;;6342993;28;20694;-80
2022/05/04 03:30:13;;;;;;;11.48;6.05;;;;;;;;;;6344707;28;20467;-80
2022/05/04 03:33:13;;;;;;;14.02;6.63;;;;;;;;;;6342956;28;20016;-80
2022/05/04 03:36:14;;;;;;;15.33;7.90;;;;;;;;;;6342823;28;20020;-80
2022/05/04 03:39:15;;;;;;;15.40;8.27;;;;;;;;;;6344950;28;20257;-80
2022/05/04 03:42:15;;;;;;;13.48;8.02;;;;;;;;;;6343093;28;20383;-80
2022/05/04 03:45:15;;;;;;;13.55;8.00;;;;;;;;;;6342386;28;20042;-80
2022/05/04 03:48:17;;;;;;;16.52;8.27;;;;;;;;;;6343035;28;20008;-80
2022/05/04 03:51:20;;;;;;;14.50;8.23;;;;;;;;;;6342939;28;20028;-80
2022/05/04 03:54:21;;;;;;;16.92;7.07;;;;;;;;;;6343593;28;20348;-79
2022/05/04 03:57:21;;;;;;;13.68;6.70;;;;;;;;;;6323261;28;20027;-80
2022/05/04 04:00:21;;;;;;;13.48;7.18;;;;;;;;;;6317190;28;20066;-80
2022/05/04 04:03:22;;;;;;;13.73;7.45;;;;;;;;;;6318625;28;20035;-80
2022/05/04 04:06:22;;;;;;;15.80;7.95;;;;;;;;;;6317950;28;20115;-80
2022/05/04 04:09:22;;;;;;;16.40;7.80;;;;;;;;;;6318564;28;20043;-80
2022/05/04 04:12:22;;;;;;;14.67;7.70;;;;;;;;;;6316725;28;20102;-80
2022/05/04 04:15:22;;;;;;;13.43;8.93;;;;;;;;;;6328099;28;20689;-80
2022/05/04 04:18:25;;;;;;;16.37;8.33;;;;;;;;;;6346646;28;20804;-80
2022/05/04 04:24:44;;;;;;;13.40;7.57;;;;;;;;;;6347988;28;19949;-80
2022/05/04 04:27:44;;;;;;;14.73;6.80;;;;;;;;;;6347306;28;20030;-80
2022/05/04 04:30:44;;;;;;;12.27;6.72;;;;;;;;;;6349327;28;20103;-80
2022/05/04 04:33:44;;;;;;;15.77;6.73;;;;;;;;;;6348349;28;20094;-80
2022/05/04 04:36:45;;;;;;;11.45;6.70;;;;;;;;;;6348836;28;20250;-80
2022/05/04 04:39:45;;;;;;;11.30;6.40;;;;;;;;;;6346947;28;20020;-80
2022/05/04 04:42:45;;;;;;;13.07;6.60;;;;;;;;;;6348412;28;20510;-80
2022/05/04 04:45:46;;;;;;;13.03;6.87;;;;;;;;;;6324052;28;20299;-80
2022/05/04 04:48:47;;;;;;;12.25;6.68;;;;;;;;;;6299977;28;20250;-80
2022/05/04 04:51:48;;;;;;;12.53;6.70;;;;;;;;;;6303036;28;20347;-80
2022/05/04 04:54:48;;;;;;;15.27;7.00;;;;;;;;;;6304813;28;20020;-80
2022/05/04 04:57:48;;;;;;;17.58;6.88;;;;;;;;;;6322321;28;20266;-79
2022/05/04 05:00:49;;;;;;;13.75;7.55;;;;;;;;;;6322564;28;20034;-80
2022/05/04 05:03:49;;;;;;;14.40;5.97;;;;;;;;;;6320742;28;20035;-80
2022/05/04 05:06:49;;;;;;;16.63;7.20;;;;;;;;;;6308481;28;20051;-80
2022/05/04 05:09:49;;;;;;;13.67;5.97;;;;;;;;;;6315510;28;20011;-80
2022/05/04 05:12:51;;;;;;;11.63;6.83;;;;;;;;;;6304930;28;20017;-80
2022/05/04 05:16:09;;;;;;;11.80;7.18;;;;;;;;;;6323199;28;20022;-80
2022/05/04 05:19:09;;;;;;;11.52;5.65;;;;;;;;;;6346891;28;20019;-80
2022/05/04 05:22:10;;;;;;;12.50;5.73;;;;;;;;;;6347390;28;20059;-80
2022/05/04 05:25:10;;;;;;;14.27;5.73;;;;;;;;;;6347100;28;20016;-80
2022/05/04 05:28:10;;;;;;;13.10;5.10;;;;;;;;;;6310217;28;20016;-80
2022/05/04 05:31:10;;;;;;;11.93;5.50;;;;;;;;;;6302583;28;20103;-80
2022/05/04 05:34:11;;;;;;;17.00;5.43;;;;;;;;;;6312868;28;20021;-80
2022/05/04 05:37:11;;;;;;;10.40;4.37;;;;;;;;;;6297380;28;20025;-80
2022/05/04 05:40:12;;;;;;;9.93;5.27;;;;;;;;;;6300654;28;20027;-80
2022/05/04 05:43:12;;;;;;;10.47;4.97;;;;;;;;;;6296407;28;20012;-80
2022/05/04 05:46:12;;;;;;;9.77;5.30;;;;;;;;;;6304343;28;20024;-81
2022/05/04 05:49:12;;;;;;;13.23;4.87;;;;;;;;;;6303193;28;20340;-80
2022/05/04 05:52:13;;;;;;;9.20;4.93;;;;;;;;;;6316379;28;20499;-80
2022/05/04 05:55:13;;;;;;;7.90;3.97;;;;;;;;;;6299526;28;20517;-80
2022/05/04 05:58:13;;;;;;;11.20;4.77;;;;;;;;;;6309197;28;20050;-80
2022/05/04 06:01:13;;;;;;;10.90;4.53;;;;;;;;;;6316056;28;20043;-81
2022/05/04 06:04:14;;;;;;;13.43;4.80;;;;;;;;;;6318515;28;20016;-80
2022/05/04 06:07:14;;;;;;;9.50;4.37;;;;;;;;;;6300575;28;20166;-80
2022/05/04 06:10:15;;;;;;;13.07;5.73;;;;;;;;;;6306444;28;20040;-80
2022/05/04 06:13:15;;;;;;;13.57;3.93;;;;;;;;;;6302751;28;20100;-79
2022/05/04 06:16:15;;;;;;;9.97;4.90;;;;;;;;;;6308594;28;20078;-79
2022/05/04 06:19:15;;;;;;;11.87;3.93;;;;;;;;;;6307160;28;20020;-81
2022/05/04 06:22:16;;;;;;;12.63;4.30;;;;;;;;;;6297846;28;20020;-80
2022/05/04 06:25:16;;;;;;;7.10;4.37;;;;;;;;;;6295970;28;20024;-81
2022/05/04 06:28:16;;;;;;;7.93;4.10;;;;;;;;;;6302002;28;20024;-80
2022/05/04 06:34:35;;;;;;;10.93;4.50;;;;;;;;;;6296213;28;20107;-80
2022/05/04 06:37:36;;;;;;;8.10;3.53;;;;;;;;;;6295185;28;20015;-80
2022/05/04 06:40:37;;;;;;;7.40;3.23;;;;;;;;;;6314157;28;20020;-80
2022/05/04 06:43:38;;;;;;;12.25;4.47;;;;;;;;;;6297681;28;20051;-80
2022/05/04 06:46:41;;;;;;;8.70;4.67;;;;;;;;;;6304223;28;20036;-78
2022/05/04 06:49:43;;;;;;;7.05;3.78;;;;;;;;;;6296812;28;20029;-80
2022/05/04 06:52:43;;;;;;;9.00;5.28;;;;;;;;;;6295770;28;20485;-79
2022/05/04 06:55:43;;;;;;;6.93;3.87;;;;;;;;;;6305906;28;20225;-79
2022/05/04 06:58:45;;;;;;;6.70;3.77;;;;;;;;;;6303423;28;20030;-79
2022/05/04 07:01:45;;;;;;;7.25;3.90;;;;;;;;;;6305316;28;20258;-79
2022/05/04 07:04:46;;;;;;;;;;;;;;;;;;6309629;28;20043;-79
2022/05/04 07:07:46;;;;;;;8.43;4.07;;;;;;;;;;6303387;28;20389;-79
2022/05/04 07:10:46;;;;;;;;;;;;;;;;;;6321222;28;20020;-79
2022/05/04 07:13:46;;;;;;;9.20;4.38;;;;;;;;;;6302994;28;19912;-79
2022/05/04 07:16:47;;;;;;;;;;;;;;;;;;6314161;28;20020;-79
2022/05/04 07:19:47;;;;;;;9.00;4.55;;;;;;;;;;6305005;28;19958;-79
2022/05/04 07:22:47;;;;;;;;;;;;;;;;;;6307667;28;20053;-79
2022/05/04 07:25:47;;;;;;;8.80;4.13;;;;;;;;;;6299208;28;19912;-79
2022/05/04 07:28:47;;;;;;;;;;;;;;;;;;6311382;28;20028;-79
2022/05/04 07:31:48;;;;;;;5.53;3.50;;;;;;;;;;6311969;28;20347;-79
2022/05/04 07:34:48;;;;;;;;;;;;;;;;;;6305529;28;20024;-79
2022/05/04 07:37:49;;;;;;;7.72;4.43;;;;;;;;;;6303667;28;19912;-79
2022/05/04 07:44:08;;;;;;;5.97;3.60;;;;;;;;;;6303336;28;19991;-79
2022/05/04 07:47:08;;;;;;;;;;;;;;;;;;6300115;28;20344;-79
2022/05/04 07:50:09;;;;;;;9.80;4.47;;;;;;;;;;6304603;28;19959;-79
2022/05/04 07:53:10;;;;;;;8.93;4.35;;;;;;;;;;6298393;28;20514;-79
2022/05/04 07:56:10;;;;;;;9.15;5.03;;;;;;;;;;6302770;28;20085;-79
2022/05/04 07:59:10;;;;;;;8.97;4.30;;;;;;;;;;6316266;28;20020;-79
2022/05/04 08:05:29;;;;;;;8.20;4.80;;;;;;;;;;6310765;28;20077;-79
2022/05/04 08:08:30;;;;;;;9.00;4.70;;;;;;;;;;6300963;28;20069;-79
2022/05/04 08:11:30;;;;;;;7.77;4.63;;;;;;;;;;6316356;28;20548;-79
2022/05/04 08:14:30;;;;;;;10.35;5.00;;;;;;;;;;6318681;28;20416;-79
2022/05/04 08:17:30;;;;;;;;;;;;;;;;;;6342688;28;20027;-80
2022/05/04 08:20:31;;;;;;;8.38;4.40;;;;;;;;;;6343589;28;19951;-80
2022/05/04 08:23:31;;;;;;;;;;;;;;;;;;6342592;28;20072;-80
2022/05/04 08:26:31;;;;;;;6.57;3.70;;;;;;;;;;6341747;28;19908;-80
2022/05/04 08:29:31;;;;;;;;;;;;;;;;;;6342662;28;20028;-80
2022/05/04 08:32:32;;;;;;;8.85;4.40;;;;;;;;;;6342659;28;20259;-80
2022/05/04 08:35:32;;;;;;;;;;;;;;;;;;6328358;28;20032;-80
2022/05/04 08:38:32;;;;;;;6.90;4.73;;;;;;;;;;6303474;28;19908;-80
2022/05/04 08:41:33;;;;;;;;;;;;;;;;;;6292959;28;20020;-80
2022/05/04 08:44:33;;;;;;;8.65;4.40;;;;;;;;;;6334907;28;19964;-79
2022/05/04 08:47:35;;;;;;;13.95;4.32;;;;;;;;;;6339183;22;20081;-86
2022/05/04 08:50:39;;;;;;;8.80;4.28;;;;;;;;;;6329713;28;20050;-86
2022/05/04 08:53:42;;;;;;;8.15;5.40;;;;;;;;;;6325599;28;20770;-86
2022/05/04 08:56:43;;;;;;;10.13;5.10;;;;;;;;;;6329263;28;20518;-86
2022/05/04 08:59:43;;;;;;;7.97;4.93;;;;;;;;;;6335807;28;20123;-85
2022/05/04 09:02:43;;;;;;;9.13;4.67;;;;;;;;;;6350896;28;20379;-86
2022/05/04 09:05:48;;;;;;;9.83;6.03;;;;;;;;;;6328571;28;20023;-85
2022/05/04 09:08:52;;;;;;;11.82;5.55;;;;;;;;;;6344458;27;20026;-86
2022/05/04 09:11:52;;;;;;;8.93;5.28;;;;;;;;;;6348376;28;20071;-86
2022/05/04 09:14:52;;;;;;;8.07;5.00;;;;;;;;;;6347649;28;20466;-86
2022/05/04 09:17:56;;;;;;;6.00;4.50;;;;;;;;;;6348367;28;20004;-86
2022/05/04 09:20:57;;;;;;;8.30;5.55;;;;;;;;;;6347103;28;20467;-86
2022/05/04 09:23:57;;;;;;;9.20;5.35;;;;;;;;;;6330452;28;20024;-87
2022/05/04 09:26:58;;;;;;;6.83;4.70;;;;;;;;;;6349106;28;20586;-86
2022/05/04 09:30:01;;;;;;;7.57;4.63;;;;;;;;;;6347807;28;20083;-85
2022/05/04 09:33:02;;;;;;;10.27;5.05;;;;;;;;;;6347907;28;20018;-88
2022/05/04 09:36:05;;;;;;;8.57;5.07;;;;;;;;;;6348143;28;20051;-88
2022/05/04 09:45:54;;;;;;;8.00;5.22;;;;;;;;;;6349349;28;20028;-86
2022/05/04 09:48:56;;;;;;;9.10;4.80;;;;;;;;;;6347936;28;20044;-86
2022/05/04 09:52:00;;;;;;;8.13;5.10;;;;;;;;;;6348717;28;20028;-86
2022/05/04 09:55:11;;;;;;;10.52;4.90;;;;;;;;;;6336808;28;20387;-85
2022/05/04 09:58:12;;;;;;;8.32;4.93;;;;;;;;;;6347512;28;20019;-85
2022/05/04 10:01:12;;;;;;;7.23;4.33;;;;;;;;;;6331108;28;20031;-85
2022/05/04 10:04:12;;;;;;;12.77;4.57;;;;;;;;;;6322036;28;20020;-85
2022/05/04 10:07:13;;;;;;;7.90;4.77;;;;;;;;;;6331016;27;20019;-85
2022/05/04 10:10:18;;;;;;;12.13;5.77;;;;;;;;;;6361958;27;20038;-86
2022/05/04 10:13:20;;;;;;;8.65;5.68;;;;;;;;;;6346506;28;20012;-85
2022/05/04 10:16:20;;;;;;;7.97;4.57;;;;;;;;;;6345760;28;20079;-85
2022/05/04 10:19:25;;;;;;;8.97;4.87;;;;;;;;;;6344614;28;20362;-86
2022/05/04 10:22:34;;;;;;;9.32;5.03;;;;;;;;;;6343950;28;20062;-85
2022/05/04 10:25:34;;;;;;;8.40;4.95;;;;;;;;;;6346318;28;20043;-86
2022/05/04 10:28:41;;;;;;;7.87;5.43;;;;;;;;;;6343777;28;20143;-86
2022/05/04 10:31:51;;;;;;;12.95;4.78;;;;;;;;;;6344931;28;20075;-86
2022/05/04 10:35:08;;;;;;;10.60;4.88;;;;;;;;;;6346139;28;20016;-86
2022/05/04 10:38:15;;;;;;;8.80;3.97;;;;;;;;;;6346392;28;20058;-86
2022/05/04 10:41:31;;;;;;;7.28;3.50;;;;;;;;;;6321049;28;20020;-86
2022/05/04 10:44:49;;;;;;;8.73;4.40;;;;;;;;;;6322926;28;20027;-86
2022/05/04 10:47:49;;;;;;;8.65;4.22;;;;;;;;;;6323627;28;20930;-86
2022/05/04 10:51:02;;;;;;;10.77;5.00;;;;;;;;;;6328252;28;20027;-86
2022/05/04 10:54:08;;;;;;;7.60;4.22;;;;;;;;;;6324943;28;20468;-86
2022/05/04 10:57:08;;;;;;;7.40;3.95;;;;;;;;;;6337741;28;20031;-86
2022/05/04 11:00:10;;;;;;;8.07;3.57;;;;;;;;;;6343938;28;20023;-87
2022/05/04 11:03:11;;;;;;;6.50;3.88;;;;;;;;;;6329287;28;20076;-86
2022/05/04 11:06:21;;;;;;;6.63;3.92;;;;;;;;;;6347432;28;20024;-86
2022/05/04 11:09:24;;;;;;;8.90;3.78;;;;;;;;;;6366820;27;20024;-86
2022/05/04 11:12:25;;;;;;;5.63;3.42;;;;;;;;;;6344867;28;20103;-86
2022/05/04 11:15:28;;;;;;;6.38;3.95;;;;;;;;;;6338317;28;20016;-87
2022/05/04 11:18:30;;;;;;;5.00;3.50;;;;;;;;;;6329127;28;20016;-86
2022/05/04 11:21:31;;;;;;;6.32;3.80;;;;;;;;;;6323773;28;20020;-86
2022/05/04 11:24:31;;;;;;;7.60;3.60;;;;;;;;;;6325758;28;20059;-86
2022/05/04 11:27:31;;;;;;;7.60;3.67;;;;;;;;;;6344719;28;20616;-86
2022/05/04 11:30:32;;;;;;;8.00;4.03;;;;;;;;;;6345622;28;20020;-86
2022/05/04 11:33:32;;;;;;;9.67;4.13;;;;;;;;;;6335731;28;20035;-86
2022/05/04 11:36:32;;;;;;;6.70;4.07;;;;;;;;;;6319955;28;20031;-86
2022/05/04 11:39:33;;;;;;;6.37;3.57;;;;;;;;;;6329061;28;20012;-85
2022/05/04 11:42:34;;;;;;;5.13;3.53;;;;;;;;;;6324086;28;20024;-86
2022/05/04 11:45:34;;;;;;;6.90;4.30;;;;;;;;;;6333014;28;20371;-86
2022/05/04 11:48:36;;;;;;;6.40;3.95;;;;;;;;;;6325034;28;20055;-87
2022/05/04 11:51:36;;;;;;;8.80;4.35;;;;;;;;;;6326210;28;20027;-86
2022/05/04 11:54:37;;;;;;;7.23;5.23;;;;;;;;;;6330438;28;20019;-86
2022/05/04 11:57:41;;;;;;;7.60;4.20;;;;;;;;;;6344328;28;20023;-86
2022/05/04 12:00:41;;;;;;;8.82;4.97;;;;;;;;;;6344769;28;20015;-86
2022/05/04 12:03:42;;;;;;;7.47;4.23;;;;;;;;;;6344713;28;20024;-86
2022/05/04 12:06:43;;;;;;;8.30;4.50;;;;;;;;;;6343736;28;20036;-86
2022/05/04 12:09:43;;;;;;;6.65;3.50;;;;;;;;;;6364161;27;20157;-86
2022/05/04 12:12:44;;;;;;;5.20;3.80;;;;;;;;;;6344770;28;20312;-86
2022/05/04 12:15:44;;;;;;;6.83;3.43;;;;;;;;;;6345305;28;20020;-86
2022/05/04 12:18:47;;;;;;;10.23;3.87;;;;;;;;;;6345374;28;20436;-86
2022/05/04 12:21:48;;;;;;;7.25;4.47;;;;;;;;;;6331979;28;20435;-86
2022/05/04 12:24:49;;;;;;;7.23;3.73;;;;;;;;;;6329401;28;20072;-86
2022/05/04 12:27:54;;;;;;;7.63;4.25;;;;;;;;;;6332544;28;20019;-86
2022/05/04 12:34:14;;;;;;;5.95;4.38;;;;;;;;;;6336076;28;20483;-86
2022/05/04 12:37:15;;;;;;;6.80;3.73;;;;;;;;;;6318744;28;20085;-86
2022/05/04 12:40:16;;;;;;;9.05;5.13;;;;;;;;;;6331399;28;20052;-86
2022/05/04 12:43:17;;;;;;;8.50;4.43;;;;;;;;;;6341499;28;20023;-86
2022/05/04 12:46:18;;;;;;;8.80;4.10;;;;;;;;;;6348814;28;20051;-86
2022/05/04 12:49:20;;;;;;;6.45;3.75;;;;;;;;;;6349726;28;20092;-86
2022/05/04 12:52:20;;;;;;;10.82;4.78;;;;;;;;;;6350135;28;20036;-86
2022/05/04 12:56:45;;;;;;;9.00;4.30;;;;;;;;;;6349454;28;20024;-86
2022/05/04 12:58:40;;;;;;;7.45;4.47;;;;;;;;;;6324444;28;20024;-86
2022/05/04 13:01:41;;;;;;;8.97;5.03;;;;;;;;;;6340834;28;20012;-86
2022/05/04 13:04:41;;;;;;;10.23;4.00;;;;;;;;;;6342357;28;20065;-86
2022/05/04 13:07:44;;;;;;;8.87;4.63;;;;;;;;;;6349596;28;20028;-86
2022/05/04 13:10:44;;;;;;;8.25;4.88;;;;;;;;;;6346252;28;20426;-86
2022/05/04 13:13:44;;;;;;;11.80;4.87;;;;;;;;;;6349947;28;20043;-86
2022/05/04 13:16:44;;;;;;;7.23;4.30;;;;;;;;;;6331433;28;20020;-86
2022/05/04 13:19:45;;;;;;;10.73;4.03;;;;;;;;;;6334972;28;20016;-86
2022/05/04 13:22:45;;;;;;;8.33;4.17;;;;;;;;;;6341149;28;20019;-86
2022/05/04 13:25:45;;;;;;;8.20;4.77;;;;;;;;;;6344648;28;20039;-86
2022/05/04 13:28:45;;;;;;;8.10;4.17;;;;;;;;;;6343397;28;20016;-86
2022/05/04 13:31:46;;;;;;;6.93;3.77;;;;;;;;;;6336685;28;20043;-86
2022/05/04 13:34:46;;;;;;;9.37;4.00;;;;;;;;;;6329157;28;20055;-86
2022/05/04 13:37:46;;;;;;;7.80;4.13;;;;;;;;;;6335386;28;20074;-86
2022/05/04 13:40:47;;;;;;;12.43;4.87;;;;;;;;;;6336481;28;20019;-86
2022/05/04 13:43:48;;;;;;;6.93;4.85;;;;;;;;;;6339226;28;20016;-86
2022/05/04 13:46:48;;;;;;;11.53;5.00;;;;;;;;;;6329989;28;20067;-86
2022/05/04 13:49:48;;;;;;;12.23;5.37;;;;;;;;;;6338267;28;20067;-86
2022/05/04 13:56:07;;;;;;;10.73;4.82;;;;;;;;;;6335091;28;20426;-86
2022/05/04 13:59:08;;;;;;;12.27;6.23;;;;;;;;;;6340656;28;20065;-86
2022/05/04 14:02:09;;;;;;;5.27;3.80;;;;;;;;;;6331393;28;20068;-86
2022/05/04 14:05:09;;;;;;;10.63;4.60;;;;;;;;;;6346535;28;20040;-86
2022/05/04 14:08:10;;;;;;;6.73;4.17;;;;;;;;;;6343027;28;20481;-86
2022/05/04 14:11:10;;;;;;;8.47;4.10;;;;;;;;;;6328666;28;20402;-86
2022/05/04 14:17:30;;;;;;;7.43;4.18;;;;;;;;;;6338693;28;20027;-86
2022/05/04 14:20:31;;;;;;;6.93;4.57;;;;;;;;;;6326283;28;20077;-86
2022/05/04 14:23:32;;;;;;;6.57;3.75;;;;;;;;;;6330869;28;20023;-85
2022/05/04 14:26:33;;;;;;;8.02;4.20;;;;;;;;;;6328159;28;20035;-86
2022/05/04 14:29:33;;;;;;;7.00;4.22;;;;;;;;;;6327871;28;20422;-86
2022/05/04 14:32:34;;;;;;;7.47;4.10;;;;;;;;;;6329375;28;20112;-86
2022/05/04 14:35:35;;;;;;;10.93;4.07;;;;;;;;;;6339422;28;20024;-86
2022/05/04 14:38:35;;;;;;;9.73;4.80;;;;;;;;;;6345275;28;20019;-87
2022/05/04 14:41:35;;;;;;;8.37;4.20;;;;;;;;;;6337933;28;20289;-87
2022/05/04 14:44:36;;;;;;;7.13;4.30;;;;;;;;;;6344751;28;20301;-87
2022/05/04 14:47:36;;;;;;;7.00;4.23;;;;;;;;;;6346035;28;20019;-87
2022/05/04 14:50:36;;;;;;;6.60;4.07;;;;;;;;;;6339976;28;20455;-87
2022/05/04 14:53:36;;;;;;;8.40;4.07;;;;;;;;;;6345780;28;20024;-87
2022/05/04 14:56:37;;;;;;;6.53;3.13;;;;;;;;;;6346468;28;20020;-87
2022/05/04 14:59:38;;;;;;;5.90;3.47;;;;;;;;;;6333806;28;20020;-86
2022/05/04 15:05:01;;;;;;;11.93;4.82;;;;;;;;;;6331845;27;20065;-86
2022/05/04 15:05:58;;;;;;;7.30;4.32;;;;;;;;;;6323917;28;20028;-86
2022/05/04 15:08:59;;;;;;;9.07;4.13;;;;;;;;;;6325722;28;20111;-86
2022/05/04 15:11:59;;;;;;;6.87;4.27;;;;;;;;;;6331128;28;20016;-87
2022/05/04 15:14:59;;;;;;;6.27;4.37;;;;;;;;;;6320348;28;20012;-87
2022/05/04 15:18:00;;;;;;;7.33;4.37;;;;;;;;;;6331039;28;20020;-86
2022/05/04 15:21:01;;;;;;;13.30;4.80;;;;;;;;;;6328786;28;20022;-86
2022/05/04 15:24:01;;;;;;;6.07;4.00;;;;;;;;;;6333501;28;20488;-87
2022/05/04 15:27:01;;;;;;;7.23;4.73;;;;;;;;;;6334198;28;20050;-86
2022/05/04 15:30:02;;;;;;;10.30;4.30;;;;;;;;;;6322768;28;20074;-87
2022/05/04 15:33:03;;;;;;;8.73;4.50;;;;;;;;;;6329315;28;20049;-86
2022/05/04 15:36:04;;;;;;;11.65;4.43;;;;;;;;;;6326174;28;20024;-86
2022/05/04 15:39:04;;;;;;;5.13;4.13;;;;;;;;;;6318482;28;20094;-86
2022/05/04 15:42:04;;;;;;;10.27;4.17;;;;;;;;;;6341613;28;20775;-86
2022/05/04 15:45:08;;;;;;;5.90;4.30;;;;;;;;;;6336552;28;20476;-86
2022/05/04 15:48:08;;;;;;;8.35;5.07;;;;;;;;;;6323822;28;20024;-86
2022/05/04 15:51:09;;;;;;;8.33;5.77;;;;;;;;;;6324086;28;20069;-86
2022/05/04 15:54:09;;;;;;;8.47;5.27;;;;;;;;;;6327941;28;20412;-86
2022/05/04 15:57:09;;;;;;;9.17;4.73;;;;;;;;;;6339594;28;20024;-86
2022/05/04 16:00:09;;;;;;;30.10;6.03;;;;;;;;;;6335859;28;20447;-86
2022/05/04 16:06:30;;;;;;;6.55;4.55;;;;;;;;;;6332655;28;20024;-86
2022/05/04 16:09:30;;;;;;;8.70;5.53;;;;;;;;;;6337962;28;20020;-86
2022/05/04 16:12:31;;;;;;;9.27;4.90;;;;;;;;;;6329490;28;20023;-87
2022/05/04 16:15:31;;;;;;;8.37;4.77;;;;;;;;;;6332107;28;20020;-86
2022/05/04 16:21:50;;;;;;;5.70;4.00;;;;;;;;;;6337440;28;20027;-86
2022/05/04 16:24:51;;;;;;;10.90;4.50;;;;;;;;;;6330533;28;20359;-87
2022/05/04 16:27:51;;;;;;;10.27;4.73;;;;;;;;;;6337527;28;20078;-86
2022/05/04 16:30:51;;;;;;;7.03;4.77;;;;;;;;;;6332040;28;20008;-86
2022/05/04 16:33:51;;;;;;;6.53;3.87;;;;;;;;;;6340897;28;20038;-86
2022/05/04 16:36:52;;;;;;;8.63;4.17;;;;;;;;;;6343624;28;20016;-86
2022/05/04 16:39:52;;;;;;;7.57;4.50;;;;;;;;;;6336387;28;20007;-86
2022/05/04 16:42:52;;;;;;;9.07;4.37;;;;;;;;;;6338771;28;20303;-86
2022/05/04 16:45:52;;;;;;;6.27;4.53;;;;;;;;;;6335986;28;20031;-86
2022/05/04 16:48:53;;;;;;;5.90;4.40;;;;;;;;;;6328179;28;20053;-86
2022/05/04 16:51:55;;;;;;;9.17;4.90;;;;;;;;;;6342246;28;20038;-86
2022/05/04 16:54:55;;;;;;;7.95;5.15;;;;;;;;;;6341384;28;20123;-86
2022/05/04 16:57:55;;;;;;;14.33;6.00;;;;;;;;;;6345900;28;20300;-86
2022/05/04 17:00:55;;;;;;;7.83;4.70;;;;;;;;;;6345665;28;20351;-86
2022/05/04 17:03:56;;;;;;;12.53;6.37;;;;;;;;;;6330406;28;20711;-86
2022/05/04 17:06:56;;;;;;;9.80;5.97;;;;;;;;;;6347353;28;20030;-86
2022/05/04 17:09:58;;;;;;;8.93;5.77;;;;;;;;;;6339007;28;20162;-86
2022/05/04 17:12:59;;;;;;;13.60;5.93;;;;;;;;;;6340694;28;20394;-86
2022/05/04 17:15:59;;;;;;;11.40;5.40;;;;;;;;;;6330922;28;20024;-86
2022/05/04 17:19:00;;;;;;;13.23;5.63;;;;;;;;;;6335719;28;20042;-86
2022/05/04 17:22:00;;;;;;;11.43;6.30;;;;;;;;;;6332798;28;20028;-86
2022/05/04 17:25:00;;;;;;;9.60;6.77;;;;;;;;;;6328896;28;20566;-86
2022/05/04 17:28:00;;;;;;;9.97;5.70;;;;;;;;;;6347847;28;20750;-86
2022/05/04 17:31:01;;;;;;;8.83;4.93;;;;;;;;;;6347257;28;20365;-86
2022/05/04 17:37:20;;;;;;;7.45;4.78;;;;;;;;;;6322238;28;20036;-86
2022/05/04 17:40:20;;;;;;;12.37;6.43;;;;;;;;;;6321538;28;20102;-86
2022/05/04 17:43:20;;;;;;;13.47;7.30;;;;;;;;;;6335614;28;20007;-86
2022/05/04 17:46:20;;;;;;;15.70;7.47;;;;;;;;;;6329694;28;20024;-86
2022/05/04 17:49:21;;;;;;;11.53;6.07;;;;;;;;;;6342644;28;20043;-86
2022/05/04 17:52:21;;;;;;;9.60;6.03;;;;;;;;;;6337543;28;20479;-86
2022/05/04 17:55:21;;;;;;;15.50;6.77;;;;;;;;;;6331735;28;20023;-86
2022/05/04 17:58:22;;;;;;;12.83;6.07;;;;;;;;;;6322403;28;20012;-86
2022/05/04 18:03:33;;;;;;;18.20;7.47;;;;;;;;;;6337171;28;20095;-86
2022/05/04 18:04:42;;;;;;;25.38;9.38;;;;;;;;;;6346873;28;20028;-86
2022/05/04 18:07:42;;;;;;;26.00;10.47;;;;;;;;;;6346706;28;20514;-86
2022/05/04 18:10:43;;;;;;;23.93;10.77;;;;;;;;;;6344617;28;20023;-86
2022/05/04 18:13:43;;;;;;;22.97;7.87;;;;;;;;;;6343965;28;20019;-86
2022/05/04 18:16:43;;;;;;;18.63;8.43;;;;;;;;;;6330897;28;20100;-86
2022/05/04 18:19:43;;;;;;;13.63;6.70;;;;;;;;;;6321714;28;20012;-86
2022/05/04 18:22:44;;;;;;;14.27;6.07;;;;;;;;;;6321172;28;20082;-86
2022/05/04 18:25:44;;;;;;;19.20;6.90;;;;;;;;;;6335872;28;20019;-86
2022/05/04 18:28:45;;;;;;;11.27;6.23;;;;;;;;;;6342678;28;20591;-86
2022/05/04 18:31:45;;;;;;;14.23;8.57;;;;;;;;;;6336406;28;20024;-86
2022/05/04 18:34:45;;;;;;;16.10;7.90;;;;;;;;;;6328878;28;20020;-86
2022/05/04 18:37:46;;;;;;;10.93;5.97;;;;;;;;;;6325470;28;20050;-86
2022/05/04 18:40:47;;;;;;;13.83;7.23;;;;;;;;;;6319924;28;20004;-86
2022/05/04 18:43:47;;;;;;;11.03;6.03;;;;;;;;;;6336080;28;20028;-86
2022/05/04 18:46:47;;;;;;;14.35;6.22;;;;;;;;;;6334908;28;20016;-86